createdAt,value
2018-11-04T00:00:21.465Z,86.3
2018-11-04T00:01:21.490Z,86.3
2018-11-04T00:02:21.512Z,86.3
2018-11-04T00:03:21.437Z,86.5
2018-11-04T00:04:21.349Z,86.7
2018-11-04T00:05:21.254Z,86.5
2018-11-04T00:06:21.175Z,87.2
2018-11-04T00:07:21.083Z,86.7
2018-11-04T00:08:21.007Z,86.7
2018-11-04T00:09:21.341Z,86.4
2018-11-04T00:10:21.242Z,87.3
2018-11-04T00:11:21.159Z,87
2018-11-04T00:12:21.080Z,86.9
2018-11-04T00:13:21.758Z,87
2018-11-04T00:14:22.052Z,87.1
2018-11-04T00:15:21.962Z,87.4
2018-11-04T00:16:21.883Z,87.4
2018-11-04T00:17:21.792Z,87.4
2018-11-04T00:18:21.694Z,86.8
2018-11-04T00:19:22.028Z,86.9
2018-11-04T00:20:22.229Z,87.6
2018-11-04T00:21:22.354Z,86.5
2018-11-04T00:22:22.246Z,86.5
2018-11-04T00:23:22.145Z,86.8
2018-11-04T00:24:22.053Z,87.1
2018-11-04T00:25:21.964Z,87
2018-11-04T00:26:21.887Z,86.9
2018-11-04T00:27:22.077Z,87.2
2018-11-04T00:28:22.317Z,86.7
2018-11-04T00:29:22.691Z,86.5
2018-11-04T00:30:22.616Z,87.3
2018-11-04T00:31:22.549Z,87.3
2018-11-04T00:32:22.454Z,87.4
2018-11-04T00:33:22.369Z,87.4
2018-11-04T00:34:22.316Z,87.4
2018-11-04T00:35:22.243Z,87.3
2018-11-04T00:36:22.157Z,87.3
2018-11-04T00:37:22.067Z,87.2
2018-11-04T00:38:21.989Z,87.4
2018-11-04T00:39:22.328Z,87
2018-11-04T00:40:22.236Z,86.9
2018-11-04T00:41:22.150Z,86.8
2018-11-04T00:42:22.053Z,86.9
2018-11-04T00:43:21.963Z,86.9
2018-11-04T00:44:21.920Z,86.6
2018-11-04T00:45:22.316Z,86.8
2018-11-04T00:46:22.664Z,87
2018-11-04T00:47:22.627Z,87
2018-11-04T00:48:22.761Z,87
2018-11-04T00:49:23.378Z,86.9
2018-11-04T00:50:23.297Z,87.2
2018-11-04T00:51:23.233Z,87
2018-11-04T00:52:23.134Z,86.9
2018-11-04T00:53:23.045Z,86.8
2018-11-04T00:54:22.946Z,87
2018-11-04T00:55:22.862Z,87.3
2018-11-04T00:56:22.823Z,87.2
2018-11-04T00:57:22.723Z,87.1
2018-11-04T00:58:22.625Z,87
2018-11-04T00:59:22.960Z,86.8
2018-11-04T01:00:22.858Z,87
2018-11-04T01:01:22.930Z,87
2018-11-04T01:02:22.928Z,87.1
2018-11-04T01:03:22.849Z,87
2018-11-04T01:04:22.772Z,87.2
2018-11-04T01:05:22.665Z,87.3
2018-11-04T01:06:22.593Z,87.8
2018-11-04T01:07:22.516Z,87.3
2018-11-04T01:08:22.432Z,87.2
2018-11-04T01:09:22.863Z,87
2018-11-04T01:10:22.767Z,87.7
2018-11-04T01:11:22.699Z,87.3
2018-11-04T01:12:22.612Z,87.6
2018-11-04T01:13:22.528Z,87.4
2018-11-04T01:14:22.445Z,87.3
2018-11-04T01:15:25.362Z,87.3
2018-11-04T01:16:25.284Z,87.4
2018-11-04T01:17:25.178Z,87.6
2018-11-04T01:18:25.094Z,87.7
2018-11-04T01:19:25.425Z,87.7
2018-11-04T01:20:25.325Z,88
2018-11-04T01:21:25.226Z,88
2018-11-04T01:22:25.138Z,88
2018-11-04T01:23:25.044Z,88.1
2018-11-04T01:24:25.437Z,88.2
2018-11-04T01:25:25.631Z,88.2
2018-11-04T01:26:25.530Z,88.3
2018-11-04T01:27:25.439Z,88.1
2018-11-04T01:28:25.361Z,87.7
2018-11-04T01:29:25.700Z,87.6
2018-11-04T01:30:26.387Z,87.6
2018-11-04T01:31:26.838Z,87.5
2018-11-04T01:32:26.772Z,87.3
2018-11-04T01:33:26.690Z,87.4
2018-11-04T01:34:26.609Z,87.6
2018-11-04T01:35:26.805Z,87.3
2018-11-04T01:36:26.843Z,87.2
2018-11-04T01:37:26.750Z,87.5
2018-11-04T01:38:26.660Z,87.2
2018-11-04T01:39:27.014Z,87.6
2018-11-04T01:40:26.939Z,87.8
2018-11-04T01:41:26.848Z,87.3
2018-11-04T01:42:26.751Z,87.3
2018-11-04T01:43:26.685Z,87.6
2018-11-04T01:44:26.595Z,87.5
2018-11-04T01:45:26.509Z,87.4
2018-11-04T01:46:26.421Z,87.7
2018-11-04T01:47:26.340Z,87.7
2018-11-04T01:48:26.270Z,87.6
2018-11-04T01:49:26.665Z,87
2018-11-04T01:50:26.554Z,87
2018-11-04T01:51:26.456Z,87.3
2018-11-04T01:52:26.356Z,87.2
2018-11-04T01:53:26.265Z,87
2018-11-04T01:54:26.189Z,87.1
2018-11-04T01:55:28.597Z,87
2018-11-04T01:56:28.509Z,87.3
2018-11-04T01:57:28.405Z,87.6
2018-11-04T01:58:28.311Z,87.6
2018-11-04T01:59:28.688Z,87.3
2018-11-04T02:00:28.590Z,88.3
2018-11-04T02:01:28.480Z,87.4
2018-11-04T02:02:28.387Z,87.6
2018-11-04T02:03:28.296Z,87.8
2018-11-04T02:04:28.201Z,87.6
2018-11-04T02:05:28.116Z,87.6
2018-11-04T02:06:28.024Z,87.7
2018-11-04T02:07:27.924Z,87.9
2018-11-04T02:08:27.827Z,87.3
2018-11-04T02:09:28.166Z,87.6
2018-11-04T02:10:28.099Z,87.6
2018-11-04T02:11:28.002Z,87.6
2018-11-04T02:12:27.914Z,87.8
2018-11-04T02:13:27.819Z,88.3
2018-11-04T02:14:27.722Z,87.6
2018-11-04T02:15:27.625Z,87.5
2018-11-04T02:16:27.533Z,87.6
2018-11-04T02:17:27.416Z,87.5
2018-11-04T02:18:27.330Z,87.6
2018-11-04T02:19:27.695Z,86.8
2018-11-04T02:20:27.592Z,87.4
2018-11-04T02:21:27.524Z,87.5
2018-11-04T02:22:27.437Z,87.2
2018-11-04T02:23:27.352Z,87.1
2018-11-04T02:24:27.260Z,87.2
2018-11-04T02:25:27.205Z,86.9
2018-11-04T02:26:27.114Z,87.2
2018-11-04T02:27:27.012Z,87.3
2018-11-04T02:28:26.928Z,87.2
2018-11-04T02:29:27.265Z,87.5
2018-11-04T02:30:27.186Z,87.3
2018-11-04T02:31:27.107Z,87.2
2018-11-04T02:32:27.022Z,87.9
2018-11-04T02:33:26.933Z,87.2
2018-11-04T02:34:26.848Z,87.1
2018-11-04T02:35:26.771Z,86.9
2018-11-04T02:36:26.689Z,87.1
2018-11-04T02:37:26.601Z,87.3
2018-11-04T02:38:26.499Z,87.1
2018-11-04T02:39:26.862Z,87.1
2018-11-04T02:40:26.784Z,87.1
2018-11-04T02:41:26.727Z,87.2
2018-11-04T02:42:26.658Z,87.2
2018-11-04T02:43:26.575Z,87.1
2018-11-04T02:44:26.488Z,87.2
2018-11-04T02:45:26.426Z,87.1
2018-11-04T02:46:26.343Z,87.2
2018-11-04T02:47:26.280Z,87.5
2018-11-04T02:48:26.222Z,87.6
2018-11-04T02:49:26.585Z,87.5
2018-11-04T02:50:26.487Z,87.1
2018-11-04T02:51:26.395Z,87.2
2018-11-04T02:52:26.299Z,87.2
2018-11-04T02:53:26.221Z,87.4
2018-11-04T02:54:26.131Z,87.5
2018-11-04T02:55:26.030Z,87.4
2018-11-04T02:56:25.993Z,87.1
2018-11-04T02:57:25.904Z,87
2018-11-04T02:58:25.827Z,87.1
2018-11-04T02:59:26.241Z,87.3
2018-11-04T03:00:26.156Z,87.2
2018-11-04T03:01:26.068Z,87.2
2018-11-04T03:02:25.983Z,87.5
2018-11-04T03:03:25.905Z,87.5
2018-11-04T03:04:25.901Z,87.5
2018-11-04T03:05:25.847Z,87.7
2018-11-04T03:06:25.768Z,87.7
2018-11-04T03:07:25.679Z,87.5
2018-11-04T03:08:25.582Z,87.4
2018-11-04T03:09:25.967Z,87.2
2018-11-04T03:10:25.906Z,88
2018-11-04T03:11:25.832Z,87.4
2018-11-04T03:12:25.738Z,86.9
2018-11-04T03:13:25.649Z,86.9
2018-11-04T03:14:25.577Z,86.6
2018-11-04T03:15:25.494Z,86.7
2018-11-04T03:16:25.389Z,86.6
2018-11-04T03:17:25.300Z,86.4
2018-11-04T03:18:25.241Z,86.6
2018-11-04T03:19:25.609Z,86.9
2018-11-04T03:20:25.507Z,87.2
2018-11-04T03:21:28.644Z,87.1
2018-11-04T03:22:28.552Z,87
2018-11-04T03:23:28.482Z,86.9
2018-11-04T03:24:28.513Z,86.7
2018-11-04T03:25:28.459Z,86.8
2018-11-04T03:26:28.380Z,86.8
2018-11-04T03:27:28.292Z,86.9
2018-11-04T03:28:28.244Z,87.3
2018-11-04T03:29:28.584Z,87.1
2018-11-04T03:30:28.511Z,86.7
2018-11-04T03:31:28.445Z,86.9
2018-11-04T03:32:28.393Z,87
2018-11-04T03:33:28.285Z,87
2018-11-04T03:34:28.206Z,86.7
2018-11-04T03:35:28.182Z,87
2018-11-04T03:36:28.105Z,86.8
2018-11-04T03:37:28.026Z,86.7
2018-11-04T03:38:27.942Z,87.1
2018-11-04T03:39:28.329Z,86.4
2018-11-04T03:40:28.239Z,87
2018-11-04T03:41:28.153Z,87
2018-11-04T03:42:28.073Z,86.9
2018-11-04T03:43:27.974Z,87.1
2018-11-04T03:44:27.882Z,87.1
2018-11-04T03:45:27.812Z,86.7
2018-11-04T03:46:27.725Z,86.9
2018-11-04T03:47:27.630Z,86.9
2018-11-04T03:48:27.549Z,86.7
2018-11-04T03:49:27.990Z,87.1
2018-11-04T03:50:27.914Z,86.9
2018-11-04T03:51:27.822Z,87.1
2018-11-04T03:52:27.727Z,87
2018-11-04T03:53:27.615Z,87.1
2018-11-04T03:54:27.522Z,87
2018-11-04T03:55:27.453Z,87.2
2018-11-04T03:56:27.358Z,87.1
2018-11-04T03:57:27.272Z,87
2018-11-04T03:58:27.181Z,86.7
2018-11-04T03:59:27.529Z,86.1
2018-11-04T04:09:25.630Z,83.4
2018-11-04T04:10:25.546Z,84.1
2018-11-04T04:11:25.467Z,84.1
2018-11-04T04:12:25.387Z,84.6
2018-11-04T04:13:25.284Z,84.8
2018-11-04T04:14:25.194Z,84.9
2018-11-04T04:15:25.104Z,84.9
2018-11-04T04:16:25.027Z,85.1
2018-11-04T04:17:24.950Z,85.3
2018-11-04T04:18:24.854Z,85.5
2018-11-04T04:19:25.265Z,85.7
2018-11-04T04:20:25.195Z,85.9
2018-11-04T04:21:25.116Z,86.1
2018-11-04T04:22:25.053Z,86.4
2018-11-04T04:23:24.974Z,86.3
2018-11-04T04:24:24.875Z,86.5
2018-11-04T04:25:24.774Z,86.4
2018-11-04T04:26:24.676Z,86.5
2018-11-04T04:27:24.575Z,86.8
2018-11-04T04:28:24.496Z,86.9
2018-11-04T04:29:24.839Z,86.8
2018-11-04T04:30:24.739Z,86.7
2018-11-04T04:31:24.636Z,86.9
2018-11-04T04:32:24.538Z,86.6
2018-11-04T04:33:24.472Z,86.8
2018-11-04T04:34:24.370Z,86.8
2018-11-04T04:35:24.286Z,86.7
2018-11-04T04:36:24.258Z,86.4
2018-11-04T04:37:24.168Z,87
2018-11-04T04:38:24.066Z,86.9
2018-11-04T04:39:24.457Z,86.8
2018-11-04T04:40:24.361Z,87
2018-11-04T04:41:24.254Z,87
2018-11-04T04:42:24.163Z,87.2
2018-11-04T04:43:24.069Z,87.3
2018-11-04T04:44:23.999Z,87.1
2018-11-04T04:45:23.909Z,87
2018-11-04T04:46:23.801Z,86.7
2018-11-04T04:47:23.701Z,87
2018-11-04T04:48:23.624Z,87.3
2018-11-04T04:49:24.046Z,87.3
2018-11-04T04:50:23.978Z,86.9
2018-11-04T04:51:23.875Z,87.1
2018-11-04T04:52:23.772Z,87.1
2018-11-04T04:53:23.677Z,87.1
2018-11-04T04:54:23.608Z,87.1
2018-11-04T04:55:23.500Z,87.1
2018-11-04T04:56:23.403Z,87.2
2018-11-04T04:57:23.311Z,87.4
2018-11-04T04:58:23.227Z,87.7
2018-11-04T04:59:23.561Z,87.4
2018-11-04T05:00:23.495Z,87.4
2018-11-04T05:01:23.403Z,87.6
2018-11-04T05:02:23.297Z,87.3
2018-11-04T05:03:23.211Z,87.2
2018-11-04T05:04:23.110Z,87.5
2018-11-04T05:05:23.075Z,87.4
2018-11-04T05:06:22.980Z,87.5
2018-11-04T05:07:22.883Z,87.6
2018-11-04T05:08:22.797Z,87.9
2018-11-04T05:09:23.142Z,88
2018-11-04T05:10:23.037Z,87.8
2018-11-04T05:11:23.027Z,87.4
2018-11-04T05:12:22.926Z,87.4
2018-11-04T05:13:22.836Z,87.5
2018-11-04T05:14:22.746Z,87.5
2018-11-04T05:15:22.639Z,87.6
2018-11-04T05:16:22.553Z,87.6
2018-11-04T05:17:22.455Z,87.4
2018-11-04T05:18:22.359Z,87.4
2018-11-04T05:19:22.701Z,87.4
2018-11-04T05:20:22.617Z,87.4
2018-11-04T05:21:22.536Z,87.4
2018-11-04T05:22:22.440Z,87.4
2018-11-04T05:23:22.356Z,87.4
2018-11-04T05:24:22.252Z,87.4
2018-11-04T05:25:22.177Z,87.4
2018-11-04T05:26:22.117Z,87.4
2018-11-04T05:27:22.018Z,87.4
2018-11-04T05:28:21.926Z,87.3
2018-11-04T05:29:22.268Z,86.7
2018-11-04T05:30:22.185Z,88.1
2018-11-04T05:31:22.091Z,87.5
2018-11-04T05:32:22.028Z,87.6
2018-11-04T05:33:21.943Z,87.6
2018-11-04T05:34:21.840Z,87.4
2018-11-04T05:35:21.740Z,87.6
2018-11-04T05:36:21.640Z,87.8
2018-11-04T05:37:21.553Z,87.9
2018-11-04T05:38:21.682Z,87.8
2018-11-04T05:59:18.176Z,82.6
2018-11-04T06:00:18.085Z,83.5
2018-11-04T06:01:17.988Z,83.8
2018-11-04T06:02:17.884Z,84.3
2018-11-04T06:03:17.787Z,84.2
2018-11-04T06:04:17.707Z,84.5
2018-11-04T06:05:17.596Z,84.7
2018-11-04T06:06:17.498Z,84.7
2018-11-04T06:07:17.403Z,84.9
2018-11-04T06:08:17.309Z,85.2
2018-11-04T06:09:17.689Z,84.9
2018-11-04T06:19:15.931Z,82.7
2018-11-04T06:20:15.939Z,83.9
2018-11-04T06:21:15.848Z,84.2
2018-11-04T06:22:15.749Z,84.3
2018-11-04T06:23:15.663Z,84.5
2018-11-04T06:24:15.575Z,84.6
2018-11-04T06:25:15.505Z,84.5
2018-11-04T06:26:15.419Z,84.7
2018-11-04T06:27:15.341Z,84.6
2018-11-04T06:28:15.252Z,84.9
2018-11-04T06:29:15.602Z,84.6
2018-11-04T06:39:13.734Z,82.9
2018-11-04T06:40:13.648Z,83.6
2018-11-04T06:41:14.350Z,83.9
2018-11-04T06:42:14.663Z,84
2018-11-04T06:43:14.568Z,84.3
2018-11-04T06:44:14.468Z,84.3
2018-11-04T06:45:14.387Z,84.3
2018-11-04T06:46:14.294Z,84.5
2018-11-04T06:47:15.013Z,84.7
2018-11-04T06:48:15.357Z,85
2018-11-04T06:49:15.716Z,84.7
2018-11-04T06:50:15.602Z,85.2
2018-11-04T06:51:15.508Z,85.4
2018-11-04T06:52:15.430Z,85.3
2018-11-04T06:53:15.322Z,85.5
2018-11-04T06:54:15.242Z,85.6
2018-11-04T06:55:15.138Z,85.7
2018-11-04T06:56:15.053Z,85.8
2018-11-04T06:57:14.958Z,86
2018-11-04T06:58:14.911Z,86.1
2018-11-04T06:59:15.261Z,85.8
2018-11-04T07:00:15.184Z,86.4
2018-11-04T07:01:15.093Z,86.7
2018-11-04T07:02:14.995Z,86.7
2018-11-04T07:03:14.913Z,86.7
2018-11-04T07:04:14.865Z,86.9
2018-11-04T07:05:14.765Z,86.9
2018-11-04T07:06:14.678Z,86.7
2018-11-04T07:07:14.604Z,86.8
2018-11-04T07:08:14.526Z,86.8
2018-11-04T07:09:14.942Z,86.2
2018-11-04T07:10:14.857Z,86.8
2018-11-04T07:11:14.776Z,86.7
2018-11-04T07:12:14.691Z,86.5
2018-11-04T07:13:14.622Z,86.7
2018-11-04T07:14:14.523Z,86.7
2018-11-04T07:15:14.436Z,86.7
2018-11-04T07:16:14.337Z,86.6
2018-11-04T07:17:14.246Z,86.7
2018-11-04T07:18:14.144Z,86.9
2018-11-04T07:19:14.509Z,86
2018-11-04T07:29:12.497Z,83.2
2018-11-04T07:30:12.422Z,84
2018-11-04T07:31:12.320Z,84.1
2018-11-04T07:32:12.856Z,84.3
2018-11-04T07:33:13.175Z,84.5
2018-11-04T07:34:13.084Z,84.7
2018-11-04T07:35:12.998Z,84.6
2018-11-04T07:36:12.904Z,84.7
2018-11-04T07:37:12.808Z,84.8
2018-11-04T07:38:12.716Z,85
2018-11-04T07:39:13.053Z,85
2018-11-04T07:40:12.986Z,85.8
2018-11-04T07:41:12.903Z,85.3
2018-11-04T07:42:12.791Z,85.2
2018-11-04T07:43:12.695Z,85.2
2018-11-04T07:44:12.996Z,85.1
2018-11-04T07:45:13.144Z,85.3
2018-11-04T07:46:13.065Z,85.4
2018-11-04T07:47:12.970Z,85.4
2018-11-04T07:48:12.887Z,85.6
2018-11-04T07:49:13.219Z,85.5
2018-11-04T07:50:13.141Z,85.4
2018-11-04T07:51:13.039Z,85.7
2018-11-04T07:52:12.982Z,85.6
2018-11-04T07:53:12.895Z,85.6
2018-11-04T07:54:12.800Z,85.9
2018-11-04T07:55:12.704Z,85.9
2018-11-04T07:56:12.617Z,86
2018-11-04T07:57:12.540Z,85.9
2018-11-04T07:58:12.454Z,86
2018-11-04T07:59:12.793Z,86.1
2018-11-04T08:00:12.708Z,86.1
2018-11-04T08:01:12.679Z,86.1
2018-11-04T08:02:12.601Z,86.1
2018-11-04T08:03:12.513Z,86
2018-11-04T08:04:12.964Z,86
2018-11-04T08:05:13.382Z,86
2018-11-04T08:06:13.280Z,86
2018-11-04T08:07:13.216Z,86.1
2018-11-04T08:08:13.144Z,86.1
2018-11-04T08:09:13.504Z,85.8
2018-11-04T08:10:13.410Z,86.5
2018-11-04T08:11:16.115Z,86.4
2018-11-04T08:12:16.059Z,86.6
2018-11-04T08:13:16.104Z,86.5
2018-11-04T08:14:16.053Z,86.5
2018-11-04T08:15:15.961Z,86.7
2018-11-04T08:16:15.871Z,86.8
2018-11-04T08:17:15.776Z,86.7
2018-11-04T08:18:15.700Z,86.3
2018-11-04T08:19:16.032Z,86.5
2018-11-04T08:20:15.930Z,86.5
2018-11-04T08:21:16.196Z,86.4
2018-11-04T08:22:16.370Z,86.4
2018-11-04T08:23:16.316Z,86.4
2018-11-04T08:24:16.211Z,86.5
2018-11-04T08:25:16.110Z,86.1
2018-11-04T08:26:16.007Z,86.3
2018-11-04T08:27:15.923Z,86.3
2018-11-04T08:28:15.833Z,86.4
2018-11-04T08:29:16.202Z,86.5
2018-11-04T08:30:16.125Z,86.8
2018-11-04T08:31:16.039Z,86.9
2018-11-04T08:32:15.956Z,86.9
2018-11-04T08:33:15.853Z,86.7
2018-11-04T08:34:15.763Z,86.8
2018-11-04T08:35:15.674Z,86.7
2018-11-04T08:36:15.578Z,86.6
2018-11-04T08:37:15.495Z,86.5
2018-11-04T08:38:15.391Z,86.6
2018-11-04T08:39:15.767Z,86.6
2018-11-04T08:40:16.066Z,86.5
2018-11-04T08:41:16.317Z,86.5
2018-11-04T08:42:16.210Z,86.4
2018-11-04T08:43:16.127Z,86.4
2018-11-04T08:44:16.047Z,86.3
2018-11-04T08:45:15.959Z,86.5
2018-11-04T08:46:15.864Z,86.6
2018-11-04T08:47:15.760Z,86.5
2018-11-04T08:48:15.659Z,86.7
2018-11-04T08:49:16.031Z,86.5
2018-11-04T08:50:15.935Z,86.6
2018-11-04T08:51:15.844Z,86.7
2018-11-04T08:52:15.769Z,86.7
2018-11-04T08:53:15.688Z,86.3
2018-11-04T08:54:15.607Z,86.2
2018-11-04T08:55:15.504Z,86.1
2018-11-04T08:56:15.425Z,86.3
2018-11-04T08:57:15.339Z,86.3
2018-11-04T08:58:15.242Z,86.6
2018-11-04T08:59:15.609Z,85.8
2018-11-04T09:00:16.465Z,86.3
2018-11-04T09:01:16.807Z,86.2
2018-11-04T09:02:16.710Z,85.9
2018-11-04T09:03:16.613Z,86.1
2018-11-04T09:04:16.577Z,86.1
2018-11-04T09:05:16.491Z,86.1
2018-11-04T09:06:16.531Z,86.1
2018-11-04T09:07:16.579Z,86.5
2018-11-04T09:08:16.495Z,86.6
2018-11-04T09:09:16.821Z,86.6
2018-11-04T09:10:16.752Z,86.3
2018-11-04T09:11:16.660Z,86.5
2018-11-04T09:12:16.566Z,86.8
2018-11-04T09:13:16.478Z,86.4
2018-11-04T09:14:17.152Z,86.6
2018-11-04T09:15:17.418Z,86.4
2018-11-04T09:16:17.314Z,86.4
2018-11-04T09:17:17.277Z,86.3
2018-11-04T09:18:17.190Z,86.5
2018-11-04T09:19:20.279Z,85.6
2018-11-04T09:20:20.197Z,86.2
2018-11-04T09:21:20.113Z,86.2
2018-11-04T09:22:20.718Z,86.1
2018-11-04T09:23:21.301Z,86.3
2018-11-04T09:24:21.249Z,86.2
2018-11-04T09:25:21.170Z,86.2
2018-11-04T09:26:21.087Z,86.3
2018-11-04T09:27:20.993Z,86.3
2018-11-04T09:28:20.894Z,86.2
2018-11-04T09:29:21.601Z,86.4
2018-11-04T09:30:22.108Z,86.3
2018-11-04T09:31:22.013Z,86.1
2018-11-04T09:32:21.963Z,86.2
2018-11-04T09:33:21.967Z,85.8
2018-11-04T09:34:22.220Z,85.9
2018-11-04T09:35:23.015Z,85.8
2018-11-04T09:36:24.894Z,86
2018-11-04T09:37:25.054Z,86
2018-11-04T09:38:24.970Z,86.1
2018-11-04T09:39:25.325Z,85.3
2018-11-04T09:49:23.409Z,82.3
2018-11-04T09:50:23.338Z,82.8
2018-11-04T09:51:23.254Z,83.2
2018-11-04T09:52:23.154Z,83
2018-11-04T09:53:23.049Z,83.1
2018-11-04T09:54:22.941Z,83.4
2018-11-04T09:55:22.845Z,83.5
2018-11-04T09:56:23.065Z,83.7
2018-11-04T09:57:23.244Z,84.1
2018-11-04T09:58:23.772Z,84.4
2018-11-04T09:59:24.361Z,83.6
2018-11-04T10:09:22.460Z,81.5
2018-11-04T10:10:22.357Z,82.2
2018-11-04T10:11:22.266Z,82.6
2018-11-04T10:12:22.170Z,83
2018-11-04T10:13:25.369Z,83
2018-11-04T10:14:25.716Z,83.3
2018-11-04T10:15:25.632Z,83.6
2018-11-04T10:16:26.202Z,83.5
2018-11-04T10:17:26.797Z,84.1
2018-11-04T10:18:26.709Z,84.5
2018-11-04T10:19:28.342Z,84.6
2018-11-04T10:20:31.337Z,84.8
2018-11-04T10:21:32.741Z,84.6
2018-11-04T10:22:32.663Z,84.5
2018-11-04T10:23:32.567Z,84.2
2018-11-04T10:24:32.462Z,84.2
2018-11-04T10:25:32.379Z,84.3
2018-11-04T10:26:32.280Z,84.5
2018-11-04T10:27:35.243Z,84.8
2018-11-04T10:28:35.159Z,85.5
2018-11-04T10:29:35.494Z,85.4
2018-11-04T10:30:35.399Z,85.2
2018-11-04T10:31:35.296Z,85
2018-11-04T10:32:35.197Z,85.2
2018-11-04T10:33:35.128Z,85.2
2018-11-04T10:34:35.048Z,85
2018-11-04T10:35:34.966Z,85
2018-11-04T10:36:34.932Z,85
2018-11-04T10:37:34.850Z,84.7
2018-11-04T10:38:34.813Z,84.7
2018-11-04T10:39:35.179Z,84.7
2018-11-04T10:40:35.097Z,84.7
2018-11-04T10:41:35.007Z,84.7
2018-11-04T10:42:34.911Z,84.7
2018-11-04T10:43:34.832Z,84.7
2018-11-04T10:44:34.795Z,84.9
2018-11-04T10:45:34.703Z,85
2018-11-04T10:46:34.636Z,85.2
2018-11-04T10:47:34.540Z,85.1
2018-11-04T10:48:34.704Z,85.3
2018-11-04T10:49:36.105Z,85.4
2018-11-04T10:50:36.238Z,85.5
2018-11-04T10:51:36.167Z,85.3
2018-11-04T10:52:36.064Z,85.6
2018-11-04T10:53:35.982Z,85.6
2018-11-04T10:54:35.894Z,85.7
2018-11-04T10:55:35.938Z,85.9
2018-11-04T10:56:35.959Z,85.7
2018-11-04T10:57:35.872Z,85.6
2018-11-04T10:58:35.984Z,85.3
2018-11-04T10:59:36.350Z,85.7
2018-11-04T11:00:36.261Z,85.7
2018-11-04T11:01:36.157Z,85.6
2018-11-04T11:02:36.076Z,85.6
2018-11-04T11:03:35.981Z,85.4
2018-11-04T11:04:36.403Z,85.6
2018-11-04T11:05:37.020Z,85.8
2018-11-04T11:06:36.942Z,85.5
2018-11-04T11:07:36.846Z,85.8
2018-11-04T11:08:36.768Z,85.8
2018-11-04T11:09:37.158Z,85.8
2018-11-04T11:10:37.079Z,85.5
2018-11-04T11:11:36.983Z,85.6
2018-11-04T11:12:36.904Z,85.5
2018-11-04T11:13:36.838Z,85.5
2018-11-04T11:14:36.756Z,85.6
2018-11-04T11:15:36.685Z,85.5
2018-11-04T11:16:36.642Z,85.5
2018-11-04T11:17:36.566Z,85.6
2018-11-04T11:18:36.481Z,85.4
2018-11-04T11:19:36.832Z,84.8
2018-11-04T11:29:35.624Z,81.5
2018-11-04T11:30:35.547Z,82.3
2018-11-04T11:31:35.484Z,82.7
2018-11-04T11:32:35.387Z,83.7
2018-11-04T11:33:35.291Z,83.2
2018-11-04T11:34:35.184Z,83.1
2018-11-04T11:35:35.121Z,83.2
2018-11-04T11:36:35.038Z,83.3
2018-11-04T11:37:35.615Z,83.7
2018-11-04T11:38:35.977Z,83.3
2018-11-04T11:39:36.340Z,83.2
2018-11-04T11:40:36.242Z,83.4
2018-11-04T11:41:36.173Z,83.6
2018-11-04T11:42:36.100Z,83.8
2018-11-04T11:43:36.014Z,83.7
2018-11-04T11:44:36.121Z,83.6
2018-11-04T11:45:36.101Z,84
2018-11-04T11:46:36.020Z,84.2
2018-11-04T11:47:35.938Z,84.3
2018-11-04T11:48:35.950Z,84.7
2018-11-04T11:49:36.300Z,84.9
2018-11-04T11:50:36.202Z,84.9
2018-11-04T11:51:36.114Z,85.1
2018-11-04T11:52:36.569Z,85.1
2018-11-04T11:53:37.125Z,85.1
2018-11-04T11:54:37.137Z,85.1
2018-11-04T11:55:37.064Z,85
2018-11-04T11:56:36.997Z,84.9
2018-11-04T11:57:36.924Z,85.1
2018-11-04T11:58:36.852Z,85
2018-11-04T11:59:37.522Z,85.1
2018-11-04T12:00:37.440Z,84.9
2018-11-04T12:01:37.357Z,84.9
2018-11-04T12:02:37.274Z,85
2018-11-04T12:03:37.196Z,85
2018-11-04T12:04:37.104Z,85.2
2018-11-04T12:05:37.032Z,85.2
2018-11-04T12:06:37.003Z,85.2
2018-11-04T12:07:36.917Z,85.2
2018-11-04T12:08:36.851Z,85.2
2018-11-04T12:09:37.208Z,85
2018-11-04T12:19:35.495Z,81.8
2018-11-04T12:20:35.402Z,82.7
2018-11-04T12:21:35.306Z,83.1
2018-11-04T12:22:35.270Z,83.4
2018-11-04T12:23:35.446Z,83.2
2018-11-04T12:24:35.588Z,83.3
2018-11-04T12:25:35.529Z,83.6
2018-11-04T12:26:35.444Z,83.7
2018-11-04T12:27:35.334Z,83.7
2018-11-04T12:28:35.256Z,83.8
2018-11-04T12:29:35.595Z,84
2018-11-04T12:30:35.530Z,84.1
2018-11-04T12:31:35.460Z,83.8
2018-11-04T12:32:35.359Z,84.2
2018-11-04T12:33:35.273Z,84.2
2018-11-04T12:34:35.202Z,84.4
2018-11-04T12:35:35.100Z,84.5
2018-11-04T12:36:35.029Z,84.4
2018-11-04T12:37:34.939Z,84.4
2018-11-04T12:38:34.848Z,84.1
2018-11-04T12:39:35.229Z,83.8
2018-11-04T12:49:34.755Z,81
2018-11-04T12:50:34.667Z,81.8
2018-11-04T12:51:34.617Z,82.2
2018-11-04T12:52:34.662Z,82.3
2018-11-04T12:53:34.683Z,82.6
2018-11-04T12:54:34.589Z,82.5
2018-11-04T12:55:34.493Z,82.7
2018-11-04T12:56:34.413Z,82.9
2018-11-04T12:57:34.321Z,82.9
2018-11-04T12:58:34.258Z,83.1
2018-11-04T12:59:34.653Z,82.9
2018-11-04T13:09:33.685Z,81.3
2018-11-04T13:10:33.625Z,82.2
2018-11-04T13:11:33.971Z,82.4
2018-11-04T13:12:34.181Z,82.4
2018-11-04T13:13:34.086Z,82.6
2018-11-04T13:14:34.040Z,82.7
2018-11-04T13:15:33.965Z,82.9
2018-11-04T13:16:33.884Z,83
2018-11-04T13:17:36.822Z,83.1
2018-11-04T13:18:36.747Z,83.2
2018-11-04T13:19:37.319Z,82.8
2018-11-04T13:20:37.241Z,83.6
2018-11-04T13:21:37.160Z,83.6
2018-11-04T13:22:37.069Z,83.5
2018-11-04T13:23:36.992Z,83.8
2018-11-04T13:24:36.966Z,83.7
2018-11-04T13:25:36.948Z,83.9
2018-11-04T13:26:36.844Z,83.9
2018-11-04T13:27:39.495Z,84
2018-11-04T13:28:39.412Z,84.1
2018-11-04T13:29:39.780Z,83.6
2018-11-04T13:39:37.915Z,81.3
2018-11-04T13:40:37.828Z,82
2018-11-04T13:41:37.752Z,82.3
2018-11-04T13:42:37.662Z,83.2
2018-11-04T13:43:37.576Z,82.7
2018-11-04T13:44:37.488Z,82.9
2018-11-04T13:45:37.417Z,83.1
2018-11-04T13:46:37.370Z,83.2
2018-11-04T13:47:37.309Z,83.2
2018-11-04T13:48:37.226Z,83.1
2018-11-04T13:49:37.767Z,82.6
2018-11-04T13:59:36.118Z,80.6
2018-11-04T14:00:36.020Z,81.4
2018-11-04T14:01:35.931Z,81.7
2018-11-04T14:02:35.838Z,81.9
2018-11-04T14:03:35.775Z,82.1
2018-11-04T14:04:35.693Z,82.5
2018-11-04T14:05:35.597Z,82.6
2018-11-04T14:06:35.507Z,83.4
2018-11-04T14:07:35.406Z,83.1
2018-11-04T14:08:35.370Z,83.4
2018-11-04T14:09:35.937Z,83.5
2018-11-04T14:10:35.882Z,83.4
2018-11-04T14:11:35.801Z,83.4
2018-11-04T14:12:35.791Z,83.5
2018-11-04T14:13:35.985Z,83.5
2018-11-04T14:14:35.937Z,83.8
2018-11-04T14:15:35.844Z,83.9
2018-11-04T14:16:35.761Z,84.2
2018-11-04T14:17:35.675Z,84.3
2018-11-04T14:18:38.592Z,84.3
2018-11-04T14:19:38.972Z,84.3
2018-11-04T14:20:38.952Z,84.6
2018-11-04T14:21:38.864Z,84.6
2018-11-04T14:22:39.142Z,84.8
2018-11-04T14:23:39.223Z,84.7
2018-11-04T14:24:39.305Z,84.9
2018-11-04T14:25:39.233Z,85.1
2018-11-04T14:26:39.145Z,85.1
2018-11-04T14:27:39.078Z,84.7
2018-11-04T14:28:38.999Z,84.8
2018-11-04T14:39:40.021Z,81.7
2018-11-04T14:40:39.967Z,82.5
2018-11-04T14:41:39.885Z,82.9
2018-11-04T14:42:39.806Z,83
2018-11-04T14:43:39.739Z,82.9
2018-11-04T14:44:39.647Z,82.9
2018-11-04T14:45:39.828Z,83.2
2018-11-04T14:46:40.051Z,83.5
2018-11-04T14:47:39.982Z,83.5
2018-11-04T14:48:39.915Z,83.8
2018-11-04T14:49:40.288Z,83.4
2018-11-04T14:59:38.590Z,81.1
2018-11-04T15:00:38.512Z,82
2018-11-04T15:01:39.167Z,82.4
2018-11-04T15:02:39.433Z,82.7
2018-11-04T15:03:39.343Z,82.8
2018-11-04T15:04:39.262Z,82.9
2018-11-04T15:05:39.454Z,83.1
2018-11-04T15:06:39.597Z,83.1
2018-11-04T15:07:40.246Z,83.2
2018-11-04T15:08:40.642Z,83.7
2018-11-04T15:09:41.069Z,83.7
2018-11-04T15:29:40.919Z,80.9
2018-11-04T15:30:41.036Z,81.8
2018-11-04T15:31:40.979Z,82.1
2018-11-04T15:32:41.003Z,82.5
2018-11-04T15:33:41.425Z,82.7
2018-11-04T15:34:42.664Z,82.6
2018-11-04T15:35:43.519Z,83.1
2018-11-04T15:36:43.456Z,83.2
2018-11-04T15:37:43.581Z,83.2
2018-11-04T15:38:44.127Z,83.4
2018-11-04T15:39:46.070Z,83.2
2018-11-04T15:40:46.933Z,83.6
2018-11-04T15:41:46.953Z,83.6
2018-11-04T15:42:46.866Z,84
2018-11-04T15:43:47.017Z,84
2018-11-04T15:44:46.924Z,84
2018-11-04T15:45:46.853Z,84.9
2018-11-04T15:46:46.776Z,84.2
2018-11-04T15:47:47.089Z,84.3
2018-11-04T15:48:47.600Z,84.7
2018-11-04T15:49:48.428Z,84
2018-11-04T15:50:48.473Z,84.7
2018-11-04T15:51:48.407Z,84.7
2018-11-04T15:52:48.460Z,85
2018-11-04T15:53:48.427Z,85.1
2018-11-04T15:54:48.758Z,85.1
2018-11-04T15:55:48.941Z,85.2
2018-11-04T15:56:49.009Z,85.2
2018-11-04T15:57:49.012Z,85.4
2018-11-04T15:58:48.929Z,85.5
2018-11-04T15:59:49.311Z,84.7
2018-11-04T16:19:47.814Z,80.8
2018-11-04T16:20:47.738Z,82
2018-11-04T16:21:47.656Z,82
2018-11-04T16:22:47.605Z,82.5
2018-11-04T16:23:47.520Z,82.9
2018-11-04T16:24:47.435Z,82.9
2018-11-04T16:25:47.357Z,83.3
2018-11-04T16:26:47.329Z,83.6
2018-11-04T16:27:47.252Z,84
2018-11-04T16:28:47.168Z,84.1